createdAt,value
2022-08-31T00:00:18.110Z,101298.63
2022-08-31T00:03:38.330Z,101305.25
2022-08-31T00:06:40.298Z,101307.25
2022-08-31T00:09:42.037Z,101303.03
2022-08-31T00:12:46.417Z,101300.34
2022-08-31T00:15:48.878Z,101292.50
2022-08-31T00:18:52.854Z,101302.66
2022-08-31T00:21:54.605Z,101293.69
2022-08-31T00:24:56.341Z,101300.09
2022-08-31T00:27:58.116Z,101293.94
2022-08-31T00:30:59.974Z,101294.19
2022-08-31T00:34:01.830Z,101287.19
2022-08-31T00:37:04.449Z,101278.59
2022-08-31T00:40:07.607Z,101279.81
2022-08-31T00:43:09.632Z,101275.75
2022-08-31T00:46:14.032Z,101280.53
2022-08-31T00:49:24.309Z,101283.84
2022-08-31T00:52:37.633Z,101283.19
2022-08-31T00:55:40.142Z,101280.13
2022-08-31T00:58:43.265Z,101282.34
2022-08-31T01:01:45.539Z,101276.66
2022-08-31T01:04:47.339Z,101280.34
2022-08-31T01:07:50.397Z,101279.59
2022-08-31T01:10:52.243Z,101281.44
2022-08-31T01:13:56.675Z,101278.84
2022-08-31T01:16:58.784Z,101287.19
2022-08-31T01:20:21.981Z,101282.63
2022-08-31T01:23:29.141Z,101288.03
2022-08-31T01:26:32.085Z,101294.19
2022-08-31T01:29:35.887Z,101293.44
2022-08-31T01:32:38.663Z,101288.16
2022-08-31T01:35:44.943Z,101296.13
2022-08-31T01:38:46.782Z,101290.13
2022-08-31T01:41:55.617Z,101283.13
2022-08-31T01:44:57.398Z,101292.19
2022-08-31T01:47:59.980Z,101282.38
2022-08-31T01:51:02.994Z,101285.81
2022-08-31T01:54:05.188Z,101285.91
2022-08-31T01:57:06.983Z,101281.63
2022-08-31T02:00:28.886Z,101282.59
2022-08-31T02:03:33.129Z,101284.69
2022-08-31T02:06:35.417Z,101290.59
2022-08-31T02:09:37.139Z,101292.78
2022-08-31T02:12:40.357Z,101284.56
2022-08-31T02:15:43.029Z,101293.41
2022-08-31T02:18:44.739Z,101289.50
2022-08-31T02:21:47.815Z,101299.19
2022-08-31T02:24:50.251Z,101301.41
2022-08-31T02:27:51.911Z,101290.38
2022-08-31T02:30:53.617Z,101292.84
2022-08-31T02:33:55.383Z,101296.28
2022-08-31T02:36:58.816Z,101292.72
2022-08-31T02:40:05.095Z,101299.75
2022-08-31T02:43:11.509Z,101300.34
2022-08-31T02:46:18.396Z,101300.25
2022-08-31T02:49:32.350Z,101301.34
2022-08-31T02:52:34.665Z,101303.19
2022-08-31T02:55:36.855Z,101300.34
2022-08-31T02:58:38.546Z,101301.44
2022-08-31T03:01:40.945Z,101292.63
2022-08-31T03:04:43.623Z,101294.59
2022-08-31T03:07:45.507Z,101287.34
2022-08-31T03:10:47.855Z,101281.09
2022-08-31T03:13:49.632Z,101279.84
2022-08-31T03:16:51.910Z,101282.53
2022-08-31T03:20:01.077Z,101277.91
2022-08-31T03:23:04.493Z,101272.38
2022-08-31T03:26:06.858Z,101274.44
2022-08-31T03:29:11.523Z,101273.50
2022-08-31T03:32:31.634Z,101267.09
2022-08-31T03:35:46.463Z,101267.59
2022-08-31T03:38:53.573Z,101278.13
2022-08-31T03:41:55.659Z,101273.22
2022-08-31T03:44:57.967Z,101280.91
2022-08-31T03:48:30.799Z,101285.56
2022-08-31T03:51:37.341Z,101286.41
2022-08-31T04:17:09.504Z,101307.31
2022-08-31T04:20:29.397Z,101307.13
2022-08-31T04:23:48.314Z,101316.44
2022-08-31T04:26:53.249Z,101312.56
2022-08-31T04:30:37.494Z,101319.28
2022-08-31T04:38:38.277Z,101332.91
2022-08-31T04:42:24.805Z,101324.84
2022-08-31T04:45:55.724Z,101327.63
2022-08-31T04:49:00.679Z,101326.78
2022-08-31T04:52:03.700Z,101331.19
2022-08-31T04:55:06.157Z,101327.72
2022-08-31T05:02:27.018Z,101322.03
2022-08-31T05:05:38.882Z,101328.28
2022-08-31T05:08:41.317Z,101333.56
2022-08-31T05:11:45.051Z,101336.91
2022-08-31T05:14:47.874Z,101336.56
2022-08-31T05:17:57.422Z,101342.19
2022-08-31T05:21:09.751Z,101340.13
2022-08-31T05:24:14.120Z,101337.31
2022-08-31T05:27:16.224Z,101341.41
2022-08-31T05:30:19.338Z,101350.88
2022-08-31T05:33:36.453Z,101344.59
2022-08-31T05:36:40.054Z,101356.34
2022-08-31T05:39:43.053Z,101356.00
2022-08-31T05:42:44.822Z,101358.69
2022-08-31T05:45:46.592Z,101365.38
2022-08-31T05:48:49.714Z,101368.88
2022-08-31T05:51:52.833Z,101377.50
2022-08-31T05:54:54.613Z,101379.66
2022-08-31T05:57:56.349Z,101371.44
2022-08-31T06:00:58.309Z,101370.41
2022-08-31T06:04:32.223Z,101381.19
2022-08-31T06:07:34.188Z,101384.28
2022-08-31T06:10:37.779Z,101379.50
2022-08-31T06:13:40.449Z,101383.38
2022-08-31T06:16:44.505Z,101377.50
2022-08-31T06:19:48.476Z,101382.22
2022-08-31T06:22:50.256Z,101386.06
2022-08-31T06:26:10.457Z,101384.63
2022-08-31T06:29:12.356Z,101388.69
2022-08-31T06:32:15.685Z,101389.94
2022-08-31T06:35:29.462Z,101385.66
2022-08-31T06:38:47.803Z,101391.81
2022-08-31T06:42:21.547Z,101388.25
2022-08-31T06:45:46.503Z,101393.81
2022-08-31T06:49:09.926Z,101399.34
2022-08-31T06:52:11.780Z,101395.31
2022-08-31T06:55:16.065Z,101395.94
2022-08-31T06:58:45.597Z,101394.75
2022-08-31T07:02:14.354Z,101395.72
2022-08-31T07:05:20.006Z,101402.38
2022-08-31T07:08:27.411Z,101397.09
2022-08-31T07:11:44.512Z,101407.53
2022-08-31T07:14:54.595Z,101399.81
2022-08-31T07:17:58.193Z,101399.56
2022-08-31T07:21:23.096Z,101408.16
2022-08-31T07:24:30.327Z,101399.25
2022-08-31T07:27:34.314Z,101394.75
2022-08-31T07:30:42.251Z,101398.75
2022-08-31T07:33:46.405Z,101405.88
2022-08-31T07:37:07.280Z,101397.81
2022-08-31T07:40:30.201Z,101400.13
2022-08-31T07:43:36.219Z,101410.19
2022-08-31T07:46:45.452Z,101400.16
2022-08-31T07:49:51.307Z,101406.94
2022-08-31T07:53:30.170Z,101414.06
2022-08-31T07:56:50.163Z,101401.84
2022-08-31T08:00:08.564Z,101410.88
2022-08-31T08:03:21.274Z,101407.66
2022-08-31T08:06:41.985Z,101413.09
2022-08-31T08:10:21.467Z,101417.56
2022-08-31T08:13:45.495Z,101413.25
2022-08-31T08:17:34.313Z,101415.91
2022-08-31T08:21:05.253Z,101421.88
2022-08-31T08:24:07.113Z,101418.28
2022-08-31T08:27:29.911Z,101416.06
2022-08-31T08:30:47.807Z,101417.34
2022-08-31T08:33:52.019Z,101427.09
2022-08-31T08:36:56.257Z,101425.53
2022-08-31T08:40:01.612Z,101427.59
2022-08-31T08:43:15.990Z,101430.59
2022-08-31T08:46:35.691Z,101429.88
2022-08-31T08:49:45.404Z,101431.13
2022-08-31T08:52:50.151Z,101424.06
2022-08-31T08:55:52.767Z,101429.09
2022-08-31T08:58:54.629Z,101425.41
2022-08-31T09:02:24.096Z,101425.00
2022-08-31T09:06:15.322Z,101428.31
2022-08-31T09:09:27.356Z,101425.84
2022-08-31T09:12:39.239Z,101426.53
2022-08-31T09:15:56.042Z,101434.09
2022-08-31T09:19:23.557Z,101422.91
2022-08-31T09:22:50.190Z,101425.00
2022-08-31T09:26:04.956Z,101427.47
2022-08-31T09:29:29.710Z,101424.84
2022-08-31T09:32:39.470Z,101425.56
2022-08-31T09:35:47.130Z,101423.38
2022-08-31T09:38:52.279Z,101423.25
2022-08-31T09:42:15.010Z,101420.03
2022-08-31T09:45:30.030Z,101419.09
2022-08-31T09:48:56.445Z,101405.34
2022-08-31T09:52:45.936Z,101415.81
2022-08-31T09:56:05.653Z,101412.19
2022-08-31T09:59:11.710Z,101416.78
2022-08-31T10:02:42.222Z,101417.63
2022-08-31T10:05:44.692Z,101420.28
2022-08-31T10:09:21.770Z,101425.16
2022-08-31T10:12:50.802Z,101416.00
2022-08-31T10:16:36.175Z,101413.50
2022-08-31T10:19:53.335Z,101413.88
2022-08-31T10:23:37.437Z,101421.53
2022-08-31T10:27:15.459Z,101410.69
2022-08-31T10:31:00.003Z,101413.28
2022-08-31T10:34:55.653Z,101413.75
2022-08-31T10:38:14.793Z,101414.72
2022-08-31T10:41:38.049Z,101401.59
2022-08-31T10:44:57.062Z,101398.22
2022-08-31T10:48:18.106Z,101396.91
2022-08-31T10:52:14.058Z,101395.44
2022-08-31T10:59:30.378Z,101395.81
2022-08-31T11:02:50.226Z,101385.44
2022-08-31T11:06:26.456Z,101380.69
2022-08-31T11:09:56.018Z,101376.13
2022-08-31T11:13:26.056Z,101384.09
2022-08-31T11:17:29.542Z,101378.78
2022-08-31T11:21:17.517Z,101377.47
2022-08-31T11:24:41.169Z,101369.13
2022-08-31T11:27:56.903Z,101381.97
2022-08-31T11:31:27.374Z,101366.59
2022-08-31T11:34:37.316Z,101375.38
2022-08-31T11:37:50.975Z,101368.88
2022-08-31T11:41:04.644Z,101361.03
2022-08-31T11:44:09.659Z,101357.13
2022-08-31T11:47:34.003Z,101359.00
2022-08-31T11:50:54.997Z,101349.03
2022-08-31T11:53:56.804Z,101354.97
2022-08-31T11:57:01.611Z,101350.94
2022-08-31T12:00:17.538Z,101349.59
2022-08-31T12:03:55.689Z,101352.50
2022-08-31T12:07:11.257Z,101346.03
2022-08-31T12:10:24.090Z,101351.16
2022-08-31T12:13:39.997Z,101343.50
2022-08-31T12:17:00.530Z,101341.97
2022-08-31T12:20:13.088Z,101336.06
2022-08-31T12:23:37.655Z,101331.28
2022-08-31T12:26:59.494Z,101329.00
2022-08-31T12:30:33.587Z,101322.34
2022-08-31T12:33:38.987Z,101320.81
2022-08-31T12:36:40.745Z,101316.06
2022-08-31T12:39:42.458Z,101312.47
2022-08-31T12:42:58.711Z,101313.31
2022-08-31T12:46:15.229Z,101312.13
2022-08-31T12:49:35.451Z,101310.09
2022-08-31T12:53:18.310Z,101302.97
2022-08-31T13:00:45.613Z,101300.22
2022-08-31T13:03:54.326Z,101305.38
2022-08-31T13:07:11.494Z,101305.00
2022-08-31T13:10:24.284Z,101298.19
2022-08-31T13:13:29.525Z,101299.03
2022-08-31T13:16:32.295Z,101302.63
2022-08-31T13:19:45.537Z,101299.34
2022-08-31T13:23:23.639Z,101303.38
2022-08-31T13:26:25.550Z,101286.50
2022-08-31T13:32:46.795Z,101274.03
2022-08-31T13:35:52.137Z,101270.81
2022-08-31T13:38:53.888Z,101265.06
2022-08-31T13:42:08.829Z,101256.38
2022-08-31T13:45:26.162Z,101256.38
2022-08-31T13:48:40.675Z,101261.34
2022-08-31T13:51:46.016Z,101267.66
2022-08-31T13:55:06.343Z,101263.06
2022-08-31T13:58:32.258Z,101266.34
2022-08-31T14:01:39.651Z,101254.69
2022-08-31T14:04:44.557Z,101252.84
2022-08-31T14:07:46.861Z,101256.56
2022-08-31T14:10:49.588Z,101249.59
2022-08-31T14:13:53.927Z,101246.88
2022-08-31T14:16:58.339Z,101249.59
2022-08-31T14:20:33.970Z,101243.78
2022-08-31T14:23:40.789Z,101247.50
2022-08-31T14:26:44.082Z,101234.88
2022-08-31T14:29:45.871Z,101241.72
2022-08-31T14:32:54.841Z,101246.00
2022-08-31T14:35:57.045Z,101245.84
2022-08-31T14:38:59.578Z,101241.41
2022-08-31T14:42:21.903Z,101246.88
2022-08-31T14:45:23.786Z,101234.91
2022-08-31T14:48:31.537Z,101231.84
2022-08-31T14:51:42.292Z,101231.84
2022-08-31T14:54:46.033Z,101220.56
2022-08-31T14:57:55.616Z,101223.28
2022-08-31T15:01:00.321Z,101222.25
2022-08-31T15:04:06.066Z,101226.34
2022-08-31T15:07:17.658Z,101222.91
2022-08-31T15:10:21.376Z,101235.38
2022-08-31T15:13:23.711Z,101228.88
2022-08-31T15:16:33.864Z,101220.34
2022-08-31T15:19:35.739Z,101221.88
2022-08-31T15:22:40.550Z,101211.97
2022-08-31T15:25:42.392Z,101218.97
2022-08-31T15:28:44.075Z,101221.22
2022-08-31T15:31:52.801Z,101222.25
2022-08-31T15:34:58.094Z,101213.84
2022-08-31T15:38:01.302Z,101205.50
2022-08-31T15:41:05.407Z,101197.81
2022-08-31T15:44:10.311Z,101205.34
2022-08-31T15:47:31.191Z,101199.72
2022-08-31T15:50:35.822Z,101200.75
2022-08-31T15:53:42.676Z,101202.44
2022-08-31T15:56:44.398Z,101193.19
2022-08-31T15:59:46.380Z,101191.84
2022-08-31T16:02:48.064Z,101196.28
2022-08-31T16:05:49.785Z,101186.00
2022-08-31T16:08:55.356Z,101185.34
2022-08-31T16:11:57.185Z,101182.09
2022-08-31T16:14:59.178Z,101188.44
2022-08-31T16:18:02.901Z,101184.31
2022-08-31T16:21:06.396Z,101179.38
2022-08-31T16:24:09.722Z,101167.25
2022-08-31T16:27:16.338Z,101168.63
2022-08-31T16:30:18.569Z,101171.50
2022-08-31T16:33:20.647Z,101176.13
2022-08-31T16:36:28.259Z,101174.22
2022-08-31T16:39:29.935Z,101174.69
2022-08-31T16:42:31.610Z,101168.25
2022-08-31T16:45:33.312Z,101171.47
2022-08-31T16:48:53.797Z,101172.81
2022-08-31T16:51:55.867Z,101178.25
2022-08-31T16:54:57.674Z,101176.47
2022-08-31T16:57:59.387Z,101178.53
2022-08-31T17:01:13.451Z,101188.22
2022-08-31T17:04:41.164Z,101188.03
2022-08-31T17:07:42.956Z,101189.00
2022-08-31T17:10:44.859Z,101182.34
2022-08-31T17:13:59.008Z,101191.19
2022-08-31T17:17:07.990Z,101185.19
2022-08-31T17:20:13.217Z,101191.28
2022-08-31T17:23:24.486Z,101190.09
2022-08-31T17:26:31.122Z,101194.28
2022-08-31T17:29:40.785Z,101191.03
2022-08-31T17:32:46.070Z,101190.88
2022-08-31T17:35:47.721Z,101197.28
2022-08-31T17:38:49.844Z,101196.78
2022-08-31T17:42:20.066Z,101204.72
2022-08-31T17:45:21.847Z,101209.06
2022-08-31T17:48:23.776Z,101206.28
2022-08-31T17:51:28.752Z,101201.31
2022-08-31T17:54:31.965Z,101209.28
2022-08-31T17:57:34.048Z,101208.50
2022-08-31T18:00:35.789Z,101208.25
2022-08-31T18:03:37.767Z,101206.66
2022-08-31T18:06:44.804Z,101211.00
2022-08-31T18:09:47.064Z,101219.09
2022-08-31T18:12:48.884Z,101220.19
2022-08-31T18:15:50.687Z,101212.28
2022-08-31T18:18:52.373Z,101213.06
2022-08-31T18:21:55.485Z,101221.13
2022-08-31T18:24:58.147Z,101227.19
2022-08-31T18:28:03.322Z,101228.78
2022-08-31T18:31:07.666Z,101232.25
2022-08-31T18:34:14.111Z,101235.59
2022-08-31T18:37:21.968Z,101238.47
2022-08-31T18:40:43.280Z,101241.63
2022-08-31T18:44:03.503Z,101235.06
2022-08-31T18:47:09.241Z,101237.94
2022-08-31T18:50:10.917Z,101241.13
2022-08-31T18:53:27.616Z,101243.72
2022-08-31T18:56:31.556Z,101248.47
2022-08-31T18:59:33.222Z,101246.25
2022-08-31T19:02:36.924Z,101242.94
2022-08-31T19:05:39.919Z,101238.53
2022-08-31T19:08:41.595Z,101243.53
2022-08-31T19:11:51.337Z,101244.56
2022-08-31T19:14:55.380Z,101238.00
2022-08-31T19:17:57.335Z,101246.25
2022-08-31T19:20:59.195Z,101242.97
2022-08-31T19:24:05.124Z,101247.53
2022-08-31T19:27:08.107Z,101253.91
2022-08-31T19:30:12.069Z,101253.31
2022-08-31T19:33:13.896Z,101251.53
2022-08-31T19:36:16.125Z,101256.97
2022-08-31T19:39:23.584Z,101259.03
2022-08-31T19:42:59.692Z,101261.25
2022-08-31T19:45:50.870Z,101260.13
2022-08-31T19:48:53.464Z,101268.47
2022-08-31T19:52:00.847Z,101255.00
2022-08-31T19:55:09.095Z,101260.56
2022-08-31T19:58:11.020Z,101269.56
2022-08-31T20:01:13.008Z,101262.22
2022-08-31T20:04:17.108Z,101262.16
2022-08-31T20:07:20.171Z,101269.19
2022-08-31T20:10:21.847Z,101262.00
2022-08-31T20:13:24.574Z,101261.63
2022-08-31T20:16:33.351Z,101265.13
2022-08-31T20:19:37.258Z,101264.44
2022-08-31T20:22:40.394Z,101271.34
2022-08-31T20:25:46.905Z,101266.31
2022-08-31T20:28:51.127Z,101274.03
2022-08-31T20:31:55.317Z,101271.84
2022-08-31T20:34:57.660Z,101269.88
2022-08-31T20:37:59.337Z,101277.72
2022-08-31T20:41:03.347Z,101269.50
2022-08-31T20:44:11.038Z,101272.81
2022-08-31T20:47:31.178Z,101270.88
2022-08-31T20:50:34.760Z,101275.16
2022-08-31T20:53:42.990Z,101279.94
2022-08-31T20:56:45.670Z,101278.44
2022-08-31T20:59:49.749Z,101277.09
2022-08-31T21:02:52.556Z,101268.75
2022-08-31T21:05:54.805Z,101284.34
2022-08-31T21:08:56.843Z,101275.75
2022-08-31T21:11:59.505Z,101283.44
2022-08-31T21:15:02.249Z,101278.53
2022-08-31T21:18:04.027Z,101282.69
2022-08-31T21:21:08.688Z,101281.94
2022-08-31T21:24:12.023Z,101285.22
2022-08-31T21:27:16.970Z,101281.03
2022-08-31T21:30:18.837Z,101280.31
2022-08-31T21:33:20.652Z,101288.63
2022-08-31T21:36:23.595Z,101285.41
2022-08-31T21:39:28.035Z,101288.34
2022-08-31T21:42:29.813Z,101295.38
2022-08-31T21:45:31.572Z,101291.41
2022-08-31T21:48:35.684Z,101297.03
2022-08-31T21:51:45.487Z,101294.59
2022-08-31T21:54:48.000Z,101310.16
2022-08-31T21:57:49.663Z,101304.25
2022-08-31T22:00:52.510Z,101310.34
2022-08-31T22:03:58.728Z,101308.03
2022-08-31T22:07:02.047Z,101311.16
2022-08-31T22:10:06.864Z,101313.47
2022-08-31T22:13:11.551Z,101316.34
2022-08-31T22:16:19.421Z,101321.22
2022-08-31T22:19:23.072Z,101319.09
2022-08-31T22:22:24.885Z,101323.09
2022-08-31T22:25:27.649Z,101317.84
2022-08-31T22:28:29.325Z,101327.09
2022-08-31T22:31:31.203Z,101327.19
2022-08-31T22:34:33.054Z,101330.03
2022-08-31T22:37:35.321Z,101332.19
2022-08-31T22:40:38.931Z,101334.03
2022-08-31T22:43:42.291Z,101332.50
2022-08-31T22:46:45.251Z,101333.06
2022-08-31T22:49:47.130Z,101336.94
2022-08-31T22:52:48.848Z,101335.44
2022-08-31T22:55:50.517Z,101334.13
2022-08-31T22:58:53.948Z,101339.75
2022-08-31T23:02:00.541Z,101339.84
2022-08-31T23:05:03.666Z,101339.00
2022-08-31T23:08:05.452Z,101337.59
2022-08-31T23:11:07.186Z,101339.63
2022-08-31T23:14:10.222Z,101332.06
2022-08-31T23:17:12.180Z,101333.16
2022-08-31T23:20:19.444Z,101327.13
2022-08-31T23:23:21.966Z,101328.97
2022-08-31T23:26:27.085Z,101324.75
2022-08-31T23:29:29.002Z,101326.91
2022-08-31T23:32:32.189Z,101321.78
2022-08-31T23:35:34.687Z,101319.31
2022-08-31T23:38:37.965Z,101320.59
2022-08-31T23:41:39.656Z,101318.00
2022-08-31T23:44:43.249Z,101320.91
2022-08-31T23:47:45.029Z,101318.34
2022-08-31T23:50:47.046Z,101326.50
2022-08-31T23:53:53.991Z,101321.34
2022-08-31T23:56:59.901Z,101325.97
